Time;durP1;ratioP1;P1;durP2;ratioP2;P2;SDS_P1;SDS_P2;PMS_P1;PMS_P2;Temp;Humidity;BMP_temperature;BMP_pressure;BME280_temperature;BME280_humidity;BME280_pressure;Samples;Min_cycle;Max_cycle;Signal;HPM_P1;HPM_P2
2023/05/13 00:01:42;;;;;;;11.20;10.50;;;11.30;99.90;;;;;;4976823;28;20227;-78
2023/05/13 00:04:09;;;;;;;12.20;11.40;;;11.30;99.90;;;;;;4975430;28;20668;-77
2023/05/13 00:06:36;;;;;;;11.83;11.03;;;11.20;99.90;;;;;;4979766;28;20218;-77
2023/05/13 00:09:03;;;;;;;12.00;11.20;;;11.30;99.90;;;;;;4976020;28;20738;-78
2023/05/13 00:11:30;;;;;;;11.50;10.80;;;11.30;99.90;;;;;;4962385;28;20262;-78
2023/05/13 00:13:58;;;;;;;11.67;10.87;;;11.30;99.90;;;;;;4956530;28;20262;-78
2023/05/13 00:16:26;;;;;;;11.30;10.50;;;11.40;99.90;;;;;;4961113;28;20667;-78
2023/05/13 00:18:53;;;;;;;11.87;11.07;;;11.40;99.90;;;;;;4975967;28;20203;-77
2023/05/13 00:21:20;;;;;;;11.60;10.80;;;11.40;99.90;;;;;;4982711;28;20730;-78
2023/05/13 00:23:47;;;;;;;11.80;10.97;;;11.40;99.90;;;;;;4977390;28;20250;-78
2023/05/13 00:26:13;;;;;;;11.80;11.10;;;11.40;99.90;;;;;;4976582;28;20219;-78
2023/05/13 00:28:41;;;;;;;11.60;10.80;;;11.30;99.90;;;;;;4974233;28;20192;-78
2023/05/13 00:31:10;;;;;;;11.27;10.47;;;11.30;99.90;;;;;;4955764;28;20312;-78
2023/05/13 00:33:36;;;;;;;12.43;11.63;;;11.30;99.90;;;;;;4962459;28;20195;-78
2023/05/13 00:36:04;;;;;;;11.53;10.83;;;11.30;99.90;;;;;;4963077;28;20751;-77
2023/05/13 00:38:31;;;;;;;12.20;11.47;;;11.30;99.90;;;;;;4962175;28;20227;-78
2023/05/13 00:40:58;;;;;;;12.23;11.33;;;11.30;99.90;;;;;;4965772;28;20216;-78
2023/05/13 00:43:25;;;;;;;11.80;11.00;;;11.30;99.90;;;;;;4978665;28;20225;-78
2023/05/13 00:45:52;;;;;;;12.37;11.57;;;11.20;99.90;;;;;;4962713;28;20212;-78
2023/05/13 00:48:20;;;;;;;12.17;11.37;;;11.20;99.90;;;;;;4961478;28;20293;-78
2023/05/13 00:50:47;;;;;;;11.83;11.13;;;11.20;99.90;;;;;;4968702;28;20199;-78
2023/05/13 00:53:16;;;;;;;12.17;11.17;;;11.20;99.90;;;;;;4970862;28;20220;-78
2023/05/13 00:55:43;;;;;;;11.67;10.90;;;11.20;99.90;;;;;;4957498;28;20207;-78
2023/05/13 00:58:10;;;;;;;12.30;11.50;;;11.20;99.90;;;;;;4974825;28;20253;-77
2023/05/13 01:00:44;;;;;;;12.00;11.20;;;11.20;99.90;;;;;;4969347;28;20248;-77
2023/05/13 01:03:14;;;;;;;11.80;10.90;;;11.20;99.90;;;;;;4958339;28;20582;-78
2023/05/13 01:05:50;;;;;;;11.80;11.00;;;11.10;99.90;;;;;;4954634;28;20204;-78
2023/05/13 01:08:27;;;;;;;12.07;11.27;;;11.10;99.90;;;;;;4954462;28;20205;-78
2023/05/13 01:10:59;;;;;;;11.83;11.03;;;11.10;99.90;;;;;;4964968;28;20640;-78
2023/05/13 01:13:31;;;;;;;11.97;11.00;;;11.10;99.90;;;;;;4957709;28;20211;-78
2023/05/13 01:16:03;;;;;;;11.37;10.67;;;11.10;99.90;;;;;;4954135;29;20294;-78
2023/05/13 01:18:36;;;;;;;11.77;10.97;;;11.10;99.90;;;;;;4977755;28;20211;-78
2023/05/13 01:21:06;;;;;;;12.00;11.20;;;11.10;99.90;;;;;;4965128;28;20229;-77
2023/05/13 01:23:34;;;;;;;11.33;10.63;;;11.10;99.90;;;;;;4954191;28;20275;-78
2023/05/13 01:26:01;;;;;;;11.70;10.90;;;11.10;99.90;;;;;;4962740;28;20203;-78
2023/05/13 01:28:28;;;;;;;11.50;10.70;;;11.10;99.90;;;;;;4959097;28;20204;-78
2023/05/13 01:30:56;;;;;;;11.10;10.30;;;11.10;99.90;;;;;;4961949;28;20190;-78
2023/05/13 01:33:25;;;;;;;11.67;10.83;;;11.10;99.90;;;;;;4955097;28;20275;-78
2023/05/13 01:35:53;;;;;;;11.03;10.20;;;11.10;99.90;;;;;;4957796;29;20724;-78
2023/05/13 01:38:21;;;;;;;11.43;10.53;;;11.20;99.90;;;;;;4958245;28;20206;-78
2023/05/13 01:40:53;;;;;;;11.57;10.77;;;11.20;99.90;;;;;;4962217;28;20223;-78
2023/05/13 01:43:20;;;;;;;11.87;10.93;;;11.20;99.90;;;;;;4965042;28;20698;-79
2023/05/13 01:45:47;;;;;;;11.73;10.90;;;11.10;99.90;;;;;;4957258;28;20204;-78
2023/05/13 01:48:15;;;;;;;11.37;10.57;;;11.10;99.90;;;;;;4958562;28;20251;-78
2023/05/13 01:50:45;;;;;;;11.70;10.90;;;11.10;99.90;;;;;;4961542;28;20731;-78
2023/05/13 01:53:12;;;;;;;10.97;10.27;;;11.10;99.90;;;;;;4964429;28;20231;-78
2023/05/13 01:55:39;;;;;;;10.73;10.03;;;11.10;99.90;;;;;;4957876;28;20268;-78
2023/05/13 01:58:07;;;;;;;11.20;10.40;;;11.00;99.90;;;;;;4958236;28;20219;-78
2023/05/13 02:00:34;;;;;;;11.43;10.63;;;11.10;99.90;;;;;;4963801;28;20721;-78
2023/05/13 02:03:01;;;;;;;11.43;10.63;;;11.00;99.90;;;;;;4960357;28;20222;-78
2023/05/13 02:05:28;;;;;;;11.87;10.97;;;11.00;99.90;;;;;;4967106;28;20216;-78
2023/05/13 02:07:56;;;;;;;11.80;11.00;;;11.10;99.90;;;;;;4965400;28;20225;-78
2023/05/13 02:10:23;;;;;;;11.20;10.40;;;11.10;99.90;;;;;;4964814;28;20260;-78
2023/05/13 02:12:49;;;;;;;10.77;10.07;;;11.00;99.90;;;;;;4961709;28;20414;-78
2023/05/13 02:15:18;;;;;;;11.80;10.90;;;11.00;99.90;;;;;;4960791;29;20268;-78
2023/05/13 02:17:44;;;;;;;11.33;10.60;;;11.10;99.90;;;;;;4956171;28;20236;-78
2023/05/13 02:20:12;;;;;;;11.60;10.87;;;11.10;99.90;;;;;;4975136;28;20294;-77
2023/05/13 02:22:40;;;;;;;11.67;10.90;;;11.10;99.90;;;;;;4973483;28;20227;-78
2023/05/13 02:25:08;;;;;;;10.70;10.00;;;11.10;99.90;;;;;;4972012;28;20203;-78
2023/05/13 02:27:36;;;;;;;11.03;10.23;;;11.10;99.90;;;;;;4974491;28;20235;-77
2023/05/13 02:30:05;;;;;;;10.70;9.80;;;11.10;99.90;;;;;;4976100;28;20731;-78
2023/05/13 02:32:34;;;;;;;10.70;10.00;;;11.10;99.90;;;;;;4959929;28;20200;-78
2023/05/13 02:35:01;;;;;;;10.50;9.80;;;11.10;99.90;;;;;;4965035;28;20235;-77
2023/05/13 02:37:28;;;;;;;11.00;10.30;;;11.10;99.90;;;;;;4975026;28;20246;-78
2023/05/13 02:40:02;;;;;;;10.60;9.80;;;11.10;99.90;;;;;;4964882;28;20192;-78
2023/05/13 02:42:29;;;;;;;10.20;9.50;;;11.10;99.90;;;;;;4963214;28;20228;-79
2023/05/13 02:44:56;;;;;;;11.53;10.63;;;11.10;99.90;;;;;;4975452;28;20250;-78
2023/05/13 02:47:24;;;;;;;10.40;9.70;;;11.00;99.90;;;;;;4967266;28;20229;-78
2023/05/13 02:49:54;;;;;;;11.20;10.47;;;11.00;99.90;;;;;;4976592;28;20196;-78
2023/05/13 02:52:22;;;;;;;10.40;9.70;;;11.00;99.90;;;;;;4960249;28;20672;-78
2023/05/13 02:54:49;;;;;;;10.27;9.57;;;11.00;99.90;;;;;;4963956;28;20622;-78
2023/05/13 02:57:16;;;;;;;9.53;8.83;;;11.10;99.90;;;;;;4961115;28;20228;-78
2023/05/13 02:59:43;;;;;;;10.37;9.67;;;11.10;99.90;;;;;;4964466;28;20213;-78
2023/05/13 03:02:11;;;;;;;10.40;9.60;;;11.10;99.90;;;;;;4963650;28;20232;-77
2023/05/13 03:04:40;;;;;;;10.67;9.90;;;11.10;99.90;;;;;;4963120;28;20200;-78
2023/05/13 03:07:08;;;;;;;10.37;9.67;;;11.10;99.90;;;;;;4960794;29;20278;-78
2023/05/13 03:09:38;;;;;;;10.07;9.37;;;11.00;99.90;;;;;;4963046;28;20224;-79
2023/05/13 03:12:05;;;;;;;10.23;9.53;;;11.00;99.90;;;;;;4960456;29;20203;-77
2023/05/13 03:14:35;;;;;;;10.53;9.73;;;11.00;99.90;;;;;;4962132;28;20203;-78
2023/05/13 03:17:02;;;;;;;10.33;9.63;;;10.90;99.90;;;;;;4958316;28;20285;-77
2023/05/13 03:19:30;;;;;;;10.50;9.80;;;10.90;99.90;;;;;;4978807;28;20218;-78
2023/05/13 03:21:57;;;;;;;10.30;9.60;;;10.90;99.90;;;;;;4968803;28;20294;-77
2023/05/13 03:24:26;;;;;;;10.70;10.00;;;11.00;99.90;;;;;;4977834;28;20202;-77
2023/05/13 03:26:53;;;;;;;11.20;10.20;;;10.90;99.90;;;;;;4958440;28;20702;-78
2023/05/13 03:29:20;;;;;;;10.50;9.80;;;11.00;99.90;;;;;;4956614;29;20200;-80
2023/05/13 03:31:47;;;;;;;10.80;10.10;;;11.00;99.90;;;;;;4961691;28;20202;-80
2023/05/13 03:34:14;;;;;;;11.20;10.20;;;10.90;99.90;;;;;;4971101;28;20214;-80
2023/05/13 03:36:41;;;;;;;10.93;10.13;;;10.90;99.90;;;;;;4948410;28;20246;-79
2023/05/13 03:39:08;;;;;;;10.70;10.00;;;11.00;99.90;;;;;;4944352;28;20216;-79
2023/05/13 03:41:36;;;;;;;11.17;10.47;;;10.90;99.90;;;;;;4972674;28;20226;-80
2023/05/13 03:44:03;;;;;;;10.57;9.87;;;10.90;99.90;;;;;;4960042;28;20200;-80
2023/05/13 03:46:30;;;;;;;11.10;10.30;;;11.00;99.90;;;;;;4948603;28;20241;-77
2023/05/13 03:48:57;;;;;;;10.60;9.90;;;11.00;99.90;;;;;;4951807;28;20295;-80
2023/05/13 03:51:27;;;;;;;10.27;9.57;;;10.90;99.90;;;;;;4953515;28;20207;-77
2023/05/13 03:53:54;;;;;;;10.20;9.50;;;10.90;99.90;;;;;;4958418;28;20205;-80
2023/05/13 03:56:21;;;;;;;10.53;9.83;;;10.90;99.90;;;;;;4955422;28;20220;-79
2023/05/13 03:58:50;;;;;;;10.70;10.00;;;10.90;99.90;;;;;;4958200;28;20200;-80
2023/05/13 04:01:18;;;;;;;11.30;10.60;;;10.90;99.90;;;;;;4954940;28;20755;-80
2023/05/13 04:03:45;;;;;;;11.70;10.87;;;10.90;99.90;;;;;;4973319;28;20207;-81
2023/05/13 04:06:13;;;;;;;10.77;10.07;;;10.90;99.90;;;;;;4957738;28;20611;-80
2023/05/13 04:08:40;;;;;;;11.33;10.47;;;10.90;99.90;;;;;;4963555;28;20699;-80
2023/05/13 04:11:07;;;;;;;10.30;9.60;;;10.80;99.90;;;;;;4974444;28;20205;-80
2023/05/13 04:13:35;;;;;;;10.90;10.10;;;10.80;99.90;;;;;;4945773;28;20234;-80
2023/05/13 04:16:03;;;;;;;10.27;9.57;;;10.70;99.90;;;;;;4957873;28;20575;-80
2023/05/13 04:18:30;;;;;;;10.80;9.97;;;10.80;99.90;;;;;;4957353;28;20218;-79
2023/05/13 04:20:57;;;;;;;10.23;9.53;;;10.80;99.90;;;;;;4969689;28;20194;-80
2023/05/13 04:23:24;;;;;;;10.10;9.40;;;10.70;99.90;;;;;;4947401;29;20228;-78
2023/05/13 04:25:51;;;;;;;10.10;9.40;;;10.80;99.90;;;;;;4943189;28;20254;-81
2023/05/13 04:28:19;;;;;;;10.40;9.70;;;10.70;99.90;;;;;;4965317;28;20197;-80
2023/05/13 04:30:47;;;;;;;10.40;9.70;;;10.70;99.90;;;;;;4953483;28;20205;-80
2023/05/13 04:33:15;;;;;;;10.70;10.00;;;10.70;99.90;;;;;;4957245;28;20199;-80
2023/05/13 04:35:45;;;;;;;11.00;10.30;;;10.70;99.90;;;;;;4974343;28;20265;-81
2023/05/13 04:38:13;;;;;;;10.27;9.60;;;10.70;99.90;;;;;;4957872;28;20697;-80
2023/05/13 04:40:39;;;;;;;10.77;10.07;;;10.70;99.90;;;;;;4957187;28;20207;-81
2023/05/13 04:43:10;;;;;;;10.80;10.10;;;10.80;99.90;;;;;;4950340;28;20310;-80
2023/05/13 04:45:47;;;;;;;11.20;10.50;;;10.70;99.90;;;;;;4957567;28;20202;-79
2023/05/13 04:48:15;;;;;;;11.50;10.70;;;10.70;99.90;;;;;;4955052;28;20674;-79
2023/05/13 04:50:45;;;;;;;11.17;10.30;;;10.70;99.90;;;;;;4970341;28;20196;-80
2023/05/13 04:53:12;;;;;;;10.57;9.97;;;10.70;99.90;;;;;;4974383;28;20199;-79
2023/05/13 04:55:39;;;;;;;11.37;10.57;;;10.70;99.90;;;;;;4956311;28;20285;-79
2023/05/13 04:58:05;;;;;;;10.90;10.03;;;10.70;99.90;;;;;;4960307;28;20233;-77
2023/05/13 05:00:33;;;;;;;10.77;10.07;;;10.70;99.90;;;;;;4958855;28;20197;-79
2023/05/13 05:03:00;;;;;;;10.50;9.80;;;10.80;99.90;;;;;;4953962;28;20219;-78
2023/05/13 05:05:28;;;;;;;10.03;9.33;;;10.80;99.90;;;;;;4960725;28;20282;-79
2023/05/13 05:07:55;;;;;;;9.97;9.37;;;10.80;99.90;;;;;;4959029;28;20211;-79
2023/05/13 05:10:22;;;;;;;9.83;9.23;;;10.70;99.90;;;;;;4962670;28;20193;-79
2023/05/13 05:12:53;;;;;;;9.83;9.13;;;10.70;99.90;;;;;;4964880;28;20221;-80
2023/05/13 05:15:21;;;;;;;9.60;9.00;;;10.70;99.90;;;;;;4971040;28;20199;-79
2023/05/13 05:17:52;;;;;;;10.30;9.60;;;10.80;99.90;;;;;;4955434;28;20927;-80
2023/05/13 05:20:19;;;;;;;10.10;9.40;;;10.80;99.90;;;;;;4968926;28;20269;-80
2023/05/13 05:22:50;;;;;;;10.83;10.10;;;10.70;99.90;;;;;;4968920;28;20215;-79
2023/05/13 05:25:18;;;;;;;10.80;10.10;;;10.80;99.90;;;;;;4967529;28;20257;-80
2023/05/13 05:27:45;;;;;;;10.10;9.40;;;10.70;99.90;;;;;;4967383;28;20226;-80
2023/05/13 05:30:13;;;;;;;10.50;9.80;;;10.80;99.90;;;;;;4962484;28;20352;-77
2023/05/13 05:32:40;;;;;;;10.20;9.50;;;10.80;99.90;;;;;;4972284;28;20244;-80
2023/05/13 05:35:08;;;;;;;10.40;9.70;;;10.70;99.90;;;;;;4964872;28;20340;-79
2023/05/13 05:37:35;;;;;;;9.93;9.23;;;10.80;99.90;;;;;;4962519;28;20232;-79
2023/05/13 05:40:05;;;;;;;10.00;9.30;;;10.80;99.90;;;;;;4971605;28;20199;-79
2023/05/13 05:42:33;;;;;;;10.23;9.60;;;10.90;99.90;;;;;;4967832;28;20265;-79
2023/05/13 05:45:00;;;;;;;10.40;9.60;;;10.90;99.90;;;;;;4956487;28;20615;-79
2023/05/13 05:47:28;;;;;;;10.50;9.80;;;10.80;99.90;;;;;;4969095;28;20219;-79
2023/05/13 05:49:55;;;;;;;10.83;10.13;;;10.80;99.90;;;;;;4963765;28;20230;-81
2023/05/13 05:52:22;;;;;;;10.57;9.87;;;10.80;99.90;;;;;;4978377;28;20198;-81
2023/05/13 05:54:48;;;;;;;10.80;10.10;;;10.80;99.90;;;;;;4972990;28;20199;-81
2023/05/13 05:57:16;;;;;;;10.20;9.57;;;10.80;99.90;;;;;;4974377;28;20238;-80
2023/05/13 05:59:43;;;;;;;10.80;10.00;;;10.80;99.90;;;;;;4975980;28;20206;-78
2023/05/13 06:02:12;;;;;;;11.10;10.30;;;10.80;99.90;;;;;;4969427;28;20285;-79
2023/05/13 06:04:40;;;;;;;11.10;10.40;;;10.80;99.90;;;;;;4971417;28;20205;-80
2023/05/13 06:07:08;;;;;;;10.97;10.27;;;10.80;99.90;;;;;;4974420;28;20216;-79
2023/05/13 06:09:34;;;;;;;11.10;10.30;;;10.80;99.90;;;;;;4971029;28;20285;-78
2023/05/13 06:12:02;;;;;;;10.30;9.60;;;10.90;99.90;;;;;;4969985;28;20232;-80
2023/05/13 06:14:33;;;;;;;12.17;11.17;;;10.90;99.90;;;;;;4959826;28;20727;-80
2023/05/13 06:17:00;;;;;;;11.40;10.50;;;10.90;99.90;;;;;;4957015;28;20238;-78
2023/05/13 06:19:27;;;;;;;11.97;11.17;;;10.90;99.90;;;;;;4965412;28;20199;-77
2023/05/13 06:21:54;;;;;;;11.17;10.37;;;11.00;99.90;;;;;;4961128;28;20266;-80
2023/05/13 06:24:21;;;;;;;11.77;10.87;;;11.00;99.90;;;;;;4966555;28;20219;-79
2023/05/13 06:26:47;;;;;;;9.53;8.73;;;11.10;99.90;;;;;;4976876;28;20239;-79
2023/05/13 06:29:14;;;;;;;10.90;10.20;;;11.10;99.90;;;;;;4981210;28;20195;-79
2023/05/13 06:31:42;;;;;;;10.37;9.57;;;11.10;99.90;;;;;;4967641;28;20267;-79
2023/05/13 06:34:15;;;;;;;11.60;10.70;;;11.20;99.90;;;;;;4958974;28;20196;-80
2023/05/13 06:36:42;;;;;;;12.17;11.37;;;11.20;99.90;;;;;;4959726;28;20225;-79
2023/05/13 06:39:10;;;;;;;11.67;10.87;;;11.30;99.90;;;;;;4977505;28;20541;-80
2023/05/13 06:41:37;;;;;;;11.00;10.27;;;11.30;99.90;;;;;;4966104;28;20665;-79
2023/05/13 06:44:09;;;;;;;10.87;10.10;;;11.30;99.90;;;;;;4967654;28;20221;-80
2023/05/13 06:46:39;;;;;;;11.57;10.77;;;11.30;99.90;;;;;;4972858;28;20221;-80
2023/05/13 06:49:07;;;;;;;10.93;9.97;;;11.30;99.90;;;;;;4965027;28;20204;-78
2023/05/13 06:51:34;;;;;;;11.13;10.33;;;11.20;99.90;;;;;;4982340;28;20211;-80
2023/05/13 06:54:01;;;;;;;10.27;9.50;;;11.30;99.90;;;;;;4986850;28;20195;-79
2023/05/13 06:56:29;;;;;;;9.10;8.33;;;11.30;99.90;;;;;;4974465;28;20220;-79
2023/05/13 06:58:56;;;;;;;9.07;8.37;;;11.40;99.90;;;;;;4981741;28;20238;-80
2023/05/13 07:01:23;;;;;;;8.60;7.90;;;11.50;99.90;;;;;;4976724;28;20197;-81
2023/05/13 07:03:49;;;;;;;7.90;7.20;;;11.50;99.90;;;;;;4966048;28;20245;-79
2023/05/13 07:06:18;;;;;;;7.53;6.80;;;11.40;99.90;;;;;;4969849;28;20228;-79
2023/05/13 07:08:45;;;;;;;8.27;7.47;;;11.40;99.90;;;;;;4962928;28;20200;-79
2023/05/13 07:11:12;;;;;;;8.47;7.60;;;11.40;99.90;;;;;;4977604;28;20228;-80
2023/05/13 07:13:38;;;;;;;7.97;7.37;;;11.40;99.90;;;;;;4970342;28;20218;-81
2023/05/13 07:16:05;;;;;;;8.63;7.73;;;11.40;99.90;;;;;;4968123;28;20585;-81
2023/05/13 07:18:32;;;;;;;7.80;7.30;;;11.40;99.90;;;;;;4966641;28;20212;-78
2023/05/13 07:20:59;;;;;;;7.90;7.30;;;11.40;99.90;;;;;;4977459;28;20188;-78
2023/05/13 07:23:28;;;;;;;7.53;6.93;;;11.40;99.90;;;;;;4962170;29;20648;-78
2023/05/13 07:25:55;;;;;;;8.10;7.50;;;11.50;99.90;;;;;;4981686;28;20211;-79
2023/05/13 07:28:22;;;;;;;8.33;7.20;;;11.40;99.90;;;;;;4968275;28;20202;-77
2023/05/13 07:30:49;;;;;;;8.60;7.83;;;11.40;99.90;;;;;;4972602;28;20208;-78
2023/05/13 07:33:16;;;;;;;8.20;7.53;;;11.40;99.90;;;;;;4988269;28;20706;-78
2023/05/13 07:35:43;;;;;;;7.80;7.20;;;11.40;99.90;;;;;;4978408;28;20201;-78
2023/05/13 07:38:10;;;;;;;8.13;7.53;;;11.40;99.90;;;;;;4978625;28;20263;-78
2023/05/13 07:40:39;;;;;;;7.73;7.13;;;11.40;99.90;;;;;;4976590;28;20205;-78
2023/05/13 07:43:05;;;;;;;10.30;9.50;;;11.60;99.90;;;;;;4962191;29;20309;-78
2023/05/13 07:45:33;;;;;;;9.57;8.87;;;11.60;99.90;;;;;;4979874;28;20664;-78
2023/05/13 07:48:00;;;;;;;9.50;8.80;;;11.70;99.90;;;;;;4974541;28;20275;-80
2023/05/13 07:50:26;;;;;;;5.80;5.23;;;11.80;99.90;;;;;;4974834;28;20260;-78
2023/05/13 07:52:53;;;;;;;6.20;5.60;;;11.90;99.90;;;;;;4963837;28;20201;-79
2023/05/13 07:55:20;;;;;;;6.33;5.80;;;11.90;99.90;;;;;;4975436;28;20227;-80
2023/05/13 07:57:48;;;;;;;8.20;7.40;;;12.00;99.90;;;;;;4961842;28;20322;-85
2023/05/13 08:00:16;;;;;;;7.40;6.80;;;12.00;99.90;;;;;;4961716;28;20205;-80
2023/05/13 08:02:43;;;;;;;6.80;6.20;;;12.00;99.90;;;;;;4961837;28;20255;-80
2023/05/13 08:05:11;;;;;;;5.47;4.70;;;12.10;99.90;;;;;;4960833;28;20205;-79
2023/05/13 08:07:38;;;;;;;6.27;5.67;;;12.20;99.90;;;;;;4959709;28;20210;-79
2023/05/13 08:10:06;;;;;;;6.13;5.40;;;12.20;99.90;;;;;;4982603;28;20280;-80
2023/05/13 08:12:33;;;;;;;8.47;5.57;;;12.10;99.90;;;;;;4965596;28;20724;-81
2023/05/13 08:15:03;;;;;;;6.03;5.37;;;12.20;99.90;;;;;;4976083;28;20198;-79
2023/05/13 08:17:30;;;;;;;9.97;9.17;;;12.10;99.90;;;;;;4966731;28;20232;-82
2023/05/13 08:19:57;;;;;;;10.07;9.30;;;12.20;99.90;;;;;;4981994;28;20198;-81
2023/05/13 08:22:24;;;;;;;7.70;6.80;;;12.30;99.90;;;;;;4973920;28;20202;-78
2023/05/13 08:24:50;;;;;;;8.00;7.20;;;12.30;99.90;;;;;;4966669;28;20233;-80
2023/05/13 08:27:17;;;;;;;9.77;8.93;;;12.40;99.90;;;;;;4962401;28;20226;-80
2023/05/13 08:29:44;;;;;;;9.17;8.37;;;12.50;99.90;;;;;;4979011;28;20233;-78
2023/05/13 08:32:12;;;;;;;8.33;7.63;;;12.50;99.90;;;;;;4962161;28;20200;-78
2023/05/13 08:34:39;;;;;;;6.37;5.60;;;12.50;99.90;;;;;;4979365;28;20579;-78
2023/05/13 08:37:06;;;;;;;8.83;8.10;;;12.60;99.90;;;;;;4966129;28;20233;-79
2023/05/13 08:39:33;;;;;;;7.40;6.60;;;12.60;99.90;;;;;;4965439;28;20205;-79
2023/05/13 08:42:02;;;;;;;6.50;5.73;;;12.50;99.90;;;;;;4976911;28;20198;-78
2023/05/13 08:44:31;;;;;;;6.80;5.97;;;12.50;99.90;;;;;;4976495;28;20222;-78
2023/05/13 08:47:04;;;;;;;6.53;5.87;;;12.40;99.90;;;;;;4961487;28;20256;-78
2023/05/13 08:49:33;;;;;;;6.27;5.10;;;12.50;99.90;;;;;;4975401;28;20480;-79
2023/05/13 08:52:00;;;;;;;5.93;5.30;;;12.50;99.90;;;;;;4983110;28;20205;-79
2023/05/13 08:54:29;;;;;;;6.20;5.60;;;12.50;99.90;;;;;;4963973;28;20225;-79
2023/05/13 08:56:56;;;;;;;6.40;5.77;;;12.40;99.90;;;;;;4975160;28;20222;-78
2023/05/13 08:59:23;;;;;;;7.97;6.40;;;12.50;99.90;;;;;;4979397;28;20226;-79
2023/05/13 09:01:50;;;;;;;7.37;6.10;;;12.40;99.90;;;;;;4974902;28;20198;-79
2023/05/13 09:04:19;;;;;;;6.73;6.03;;;12.30;99.90;;;;;;4970864;28;20599;-79
2023/05/13 09:06:48;;;;;;;12.13;11.13;;;12.30;99.90;;;;;;4978389;28;20333;-79
2023/05/13 09:09:15;;;;;;;9.47;8.57;;;12.20;99.90;;;;;;4965375;28;20204;-77
2023/05/13 09:11:42;;;;;;;10.37;9.47;;;12.30;99.90;;;;;;4974720;28;20197;-79
2023/05/13 09:14:10;;;;;;;9.17;8.13;;;12.40;99.90;;;;;;4973853;28;20228;-79
2023/05/13 09:16:38;;;;;;;8.00;7.23;;;12.40;99.90;;;;;;4973610;28;21946;-79
2023/05/13 09:19:06;;;;;;;6.80;6.10;;;12.50;99.90;;;;;;4974914;28;20197;-80
2023/05/13 09:21:35;;;;;;;7.60;6.37;;;12.50;99.90;;;;;;4960238;29;20261;-80
2023/05/13 09:24:17;;;;;;;7.50;6.20;;;12.40;99.90;;;;;;4979596;28;20308;-80
2023/05/13 09:26:45;;;;;;;8.40;5.73;;;12.50;99.90;;;;;;4960495;28;20243;-78
2023/05/13 09:29:22;;;;;;;8.27;7.40;;;12.50;99.90;;;;;;4972411;28;20201;-78
2023/05/13 09:31:51;;;;;;;7.30;6.60;;;12.50;99.90;;;;;;4975608;28;20205;-79
2023/05/13 09:34:26;;;;;;;7.47;6.77;;;12.50;99.90;;;;;;4957657;28;20190;-79
2023/05/13 09:36:57;;;;;;;8.07;7.30;;;12.60;99.90;;;;;;4955579;28;20257;-79
2023/05/13 09:39:26;;;;;;;10.73;9.90;;;12.60;99.90;;;;;;4966293;28;20236;-78
2023/05/13 09:41:53;;;;;;;9.90;9.10;;;12.60;99.90;;;;;;4964976;28;20233;-79
2023/05/13 09:44:21;;;;;;;10.33;9.53;;;12.70;99.90;;;;;;4981397;28;20222;-79
2023/05/13 09:46:48;;;;;;;11.40;10.50;;;12.70;99.90;;;;;;4964600;28;20252;-79
2023/05/13 09:49:15;;;;;;;11.07;10.17;;;12.70;99.90;;;;;;4964088;28;20229;-79
2023/05/13 09:51:43;;;;;;;10.63;9.73;;;12.70;99.90;;;;;;4975258;28;20190;-79
2023/05/13 09:54:10;;;;;;;9.00;8.20;;;12.80;99.90;;;;;;4969618;28;20248;-78
2023/05/13 09:56:38;;;;;;;8.03;6.50;;;12.80;99.90;;;;;;4975479;28;20220;-79
2023/05/13 09:59:05;;;;;;;7.07;6.47;;;12.70;99.90;;;;;;4971574;28;20201;-79
2023/05/13 10:01:34;;;;;;;8.47;7.70;;;12.70;99.90;;;;;;4976651;28;20198;-78
2023/05/13 10:04:01;;;;;;;10.07;9.27;;;12.60;99.90;;;;;;4966106;28;20229;-79
2023/05/13 10:06:30;;;;;;;9.80;9.00;;;12.50;99.90;;;;;;4977003;28;20226;-79
2023/05/13 10:09:00;;;;;;;8.93;8.23;;;12.60;99.90;;;;;;4977251;28;20272;-79
2023/05/13 10:11:27;;;;;;;8.57;7.77;;;12.60;99.90;;;;;;4958563;28;20202;-77
2023/05/13 10:14:00;;;;;;;12.67;11.67;;;12.50;99.90;;;;;;4975432;28;20202;-79
2023/05/13 10:16:28;;;;;;;7.00;6.40;;;12.40;99.90;;;;;;4977824;28;20577;-78
2023/05/13 10:18:57;;;;;;;8.87;6.10;;;12.60;99.90;;;;;;4968121;28;20634;-79
2023/05/13 10:21:24;;;;;;;6.30;5.70;;;12.60;99.90;;;;;;4975589;28;20549;-78
2023/05/13 10:23:51;;;;;;;7.67;5.73;;;12.70;99.90;;;;;;4977778;28;20271;-79
2023/05/13 10:26:20;;;;;;;5.63;5.10;;;12.70;99.90;;;;;;4974338;28;20252;-78
2023/05/13 10:28:48;;;;;;;7.40;5.30;;;12.80;99.90;;;;;;4982234;28;20229;-79
2023/05/13 10:31:17;;;;;;;8.80;6.03;;;12.80;99.90;;;;;;4967797;28;20298;-77
2023/05/13 10:33:44;;;;;;;7.10;6.50;;;12.90;99.90;;;;;;4966975;28;20208;-80
2023/05/13 10:36:28;;;;;;;6.90;6.40;;;13.00;99.90;;;;;;4984705;28;20231;-80
2023/05/13 10:39:11;;;;;;;8.77;7.23;;;13.10;99.90;;;;;;4966428;28;20207;-81
2023/05/13 10:42:15;;;;;;;6.70;6.17;;;13.10;99.90;;;;;;4972522;28;20200;-79
2023/05/13 10:44:42;;;;;;;6.80;6.20;;;13.10;99.90;;;;;;4978019;28;20238;-79
2023/05/13 10:47:10;;;;;;;6.40;5.80;;;13.20;99.90;;;;;;4983085;28;20301;-79
2023/05/13 10:49:38;;;;;;;6.30;5.90;;;13.20;99.90;;;;;;4978057;28;20230;-78
2023/05/13 10:52:06;;;;;;;8.03;7.43;;;13.30;99.90;;;;;;4975749;28;20266;-78
2023/05/13 10:54:38;;;;;;;6.37;5.77;;;13.30;99.90;;;;;;4978995;28;20222;-77
2023/05/13 10:57:05;;;;;;;6.93;6.30;;;13.20;99.90;;;;;;4975607;28;20573;-78
2023/05/13 10:59:34;;;;;;;8.97;8.17;;;13.30;99.90;;;;;;4978682;28;20201;-78
2023/05/13 11:02:02;;;;;;;6.80;6.30;;;13.40;99.90;;;;;;4981513;28;20254;-77
2023/05/13 11:04:30;;;;;;;5.63;5.13;;;13.40;99.90;;;;;;4978118;28;20228;-78
2023/05/13 11:07:14;;;;;;;6.10;5.60;;;13.50;99.90;;;;;;4975544;28;20250;-78
2023/05/13 11:09:41;;;;;;;10.27;7.07;;;13.50;99.90;;;;;;4980381;28;20194;-78
2023/05/13 11:12:15;;;;;;;6.07;5.57;;;13.50;99.90;;;;;;4976322;28;20694;-78
2023/05/13 11:14:43;;;;;;;5.70;5.20;;;13.60;99.90;;;;;;4979566;28;20201;-77
2023/05/13 11:17:12;;;;;;;5.10;4.60;;;13.60;99.90;;;;;;4976907;28;20229;-79
2023/05/13 11:19:48;;;;;;;5.60;5.10;;;13.60;99.90;;;;;;4979406;28;20279;-78
2023/05/13 11:22:18;;;;;;;4.80;4.47;;;13.70;99.90;;;;;;4973650;28;20206;-79
2023/05/13 11:24:47;;;;;;;5.03;4.63;;;14.00;99.90;;;;;;4972933;28;20276;-79
2023/05/13 11:27:16;;;;;;;4.23;3.83;;;14.00;99.90;;;;;;4962851;28;20227;-77
2023/05/13 11:29:49;;;;;;;7.40;6.80;;;14.20;99.90;;;;;;4971048;28;20221;-78
2023/05/13 11:32:16;;;;;;;4.20;3.80;;;14.20;99.90;;;;;;4972753;28;20213;-78
2023/05/13 11:34:52;;;;;;;4.40;4.00;;;14.20;99.90;;;;;;4981235;28;20199;-77
2023/05/13 11:37:19;;;;;;;5.07;4.67;;;14.20;99.90;;;;;;4967296;28;20289;-79
2023/05/13 11:39:45;;;;;;;7.50;6.97;;;14.10;99.90;;;;;;4957334;28;20203;-79
2023/05/13 11:42:12;;;;;;;7.23;6.73;;;14.10;99.90;;;;;;4966331;28;20234;-78
2023/05/13 11:44:45;;;;;;;6.43;5.93;;;14.10;99.90;;;;;;4979575;28;20238;-78
2023/05/13 11:47:12;;;;;;;6.87;6.37;;;14.10;99.90;;;;;;4966798;28;20723;-78
2023/05/13 11:49:40;;;;;;;4.70;4.30;;;14.00;99.90;;;;;;4977560;28;20242;-79
2023/05/13 11:52:10;;;;;;;4.93;4.20;;;13.90;99.90;;;;;;4981841;28;20280;-79
2023/05/13 11:54:45;;;;;;;4.53;3.97;;;13.80;99.90;;;;;;4979777;28;20191;-78
2023/05/13 11:57:22;;;;;;;7.47;6.80;;;13.70;99.90;;;;;;4980499;28;20647;-79
2023/05/13 11:59:51;;;;;;;8.17;7.67;;;13.50;99.90;;;;;;4978622;28;20248;-79
2023/05/13 12:02:21;;;;;;;6.07;5.67;;;13.50;99.90;;;;;;4965283;28;20477;-78
2023/05/13 12:04:47;;;;;;;6.93;6.43;;;13.50;99.90;;;;;;4985486;28;20217;-78
2023/05/13 12:07:20;;;;;;;7.53;7.03;;;13.40;99.90;;;;;;4974523;28;20221;-79
2023/05/13 12:09:47;;;;;;;6.93;6.47;;;13.50;99.90;;;;;;4979109;28;20202;-78
2023/05/13 12:12:15;;;;;;;6.93;6.43;;;13.50;99.90;;;;;;4976083;28;20200;-79
2023/05/13 12:14:42;;;;;;;6.73;6.23;;;13.50;99.90;;;;;;4981921;28;20253;-78
2023/05/13 12:17:10;;;;;;;8.33;7.73;;;13.50;99.90;;;;;;4978415;28;20222;-79
2023/05/13 12:19:37;;;;;;;7.03;6.53;;;13.50;99.90;;;;;;4981249;28;20204;-78
2023/05/13 12:22:05;;;;;;;6.87;6.33;;;13.60;99.90;;;;;;4978059;28;20198;-78
2023/05/13 12:24:34;;;;;;;7.27;6.77;;;13.60;99.90;;;;;;4969622;28;20645;-79
2023/05/13 12:27:05;;;;;;;8.67;6.63;;;13.80;99.90;;;;;;4980594;28;20237;-78
2023/05/13 12:29:41;;;;;;;5.57;5.00;;;13.80;99.90;;;;;;4977876;28;20198;-77
2023/05/13 12:32:10;;;;;;;5.40;5.00;;;13.80;99.90;;;;;;4978903;28;20218;-80
2023/05/13 12:34:37;;;;;;;5.40;4.93;;;13.90;99.90;;;;;;4971087;28;20223;-80
2023/05/13 12:37:11;;;;;;;5.00;4.60;;;13.90;99.90;;;;;;4979273;28;20253;-80
2023/05/13 12:39:40;;;;;;;7.00;5.60;;;14.00;99.90;;;;;;4978413;28;20227;-79
2023/05/13 12:42:14;;;;;;;5.73;5.30;;;13.70;99.90;;;;;;4983146;28;20212;-79
2023/05/13 12:44:42;;;;;;;5.27;4.77;;;13.80;99.90;;;;;;4977375;28;20207;-78